Raleigh, Mississippi
Current Conditions -  °F | °C
As of 11:54 AM on Monday 20 Oct 2014 (Local Time) from KJAN Reporting Station
Scattered Clouds Scattered Clouds  
Wind Chill: 71°   Ceiling: Unl
Heat Index: 71°   Visibility: 10mi
Dew Point: 47°   Wind: 3mph
Humidity: 42%   Direction: NA
Pressure: 30.08"   Gusts: NA
Location:  32.03°N, 89.52°W
Report Text: KJAN 201654Z VRB03KT 10SM SCT250 22/08 A3008 RMK AO2 SLP185 T02170083
Loading
Personal Weather Stations






























Interactive Weather Map
Tropical Storm Tracking
New forecast layout! Learn more

10-Day Weather Forecast

Advertisements
Track Severe Weather on mobile